sensor_id;sensor_type;location;lat;lon;timestamp;P1;durP1;ratioP1;P2;durP2;ratioP2
52978;SDS011;51106;53.186;6.598;2022-07-03T00:01:25;6.80;;;3.70;;
52978;SDS011;51106;53.186;6.598;2022-07-03T00:03:38;4.32;;;3.88;;
52978;SDS011;51106;53.186;6.598;2022-07-03T00:05:40;4.95;;;3.05;;
52978;SDS011;51106;53.186;6.598;2022-07-03T00:07:42;4.18;;;3.70;;
52978;SDS011;51106;53.186;6.598;2022-07-03T00:09:44;9.65;;;3.90;;
52978;SDS011;51106;53.186;6.598;2022-07-03T00:11:48;5.60;;;3.75;;
52978;SDS011;51106;53.186;6.598;2022-07-03T00:13:50;5.65;;;3.40;;
52978;SDS011;51106;53.186;6.598;2022-07-03T00:15:52;4.60;;;3.55;;
52978;SDS011;51106;53.186;6.598;2022-07-03T00:17:54;6.40;;;3.72;;
52978;SDS011;51106;53.186;6.598;2022-07-03T00:19:56;5.38;;;3.35;;
52978;SDS011;51106;53.186;6.598;2022-07-03T00:22:05;4.53;;;4.13;;
52978;SDS011;51106;53.186;6.598;2022-07-03T00:24:32;5.47;;;3.65;;
52978;SDS011;51106;53.186;6.598;2022-07-03T00:26:48;5.18;;;3.88;;
52978;SDS011;51106;53.186;6.598;2022-07-03T00:28:52;4.07;;;3.58;;
52978;SDS011;51106;53.186;6.598;2022-07-03T00:30:56;4.75;;;3.67;;
52978;SDS011;51106;53.186;6.598;2022-07-03T00:33:03;5.95;;;3.97;;
52978;SDS011;51106;53.186;6.598;2022-07-03T00:35:06;6.53;;;3.97;;
52978;SDS011;51106;53.186;6.598;2022-07-03T00:37:09;5.88;;;4.15;;
52978;SDS011;51106;53.186;6.598;2022-07-03T00:39:12;8.32;;;4.40;;
52978;SDS011;51106;53.186;6.598;2022-07-03T00:41:30;5.38;;;4.25;;
52978;SDS011;51106;53.186;6.598;2022-07-03T00:43:34;6.13;;;4.38;;
52978;SDS011;51106;53.186;6.598;2022-07-03T00:45:37;5.18;;;4.15;;
52978;SDS011;51106;53.186;6.598;2022-07-03T00:47:47;10.75;;;4.80;;
52978;SDS011;51106;53.186;6.598;2022-07-03T00:49:50;8.25;;;3.80;;
52978;SDS011;51106;53.186;6.598;2022-07-03T00:51:56;4.95;;;4.07;;
52978;SDS011;51106;53.186;6.598;2022-07-03T00:54:00;5.97;;;3.72;;
52978;SDS011;51106;53.186;6.598;2022-07-03T00:56:04;5.88;;;4.13;;
52978;SDS011;51106;53.186;6.598;2022-07-03T00:58:07;5.43;;;3.92;;
52978;SDS011;51106;53.186;6.598;2022-07-03T01:00:09;4.75;;;3.60;;
52978;SDS011;51106;53.186;6.598;2022-07-03T01:02:15;6.85;;;4.72;;
52978;SDS011;51106;53.186;6.598;2022-07-03T01:04:45;6.45;;;5.05;;
52978;SDS011;51106;53.186;6.598;2022-07-03T01:07:02;5.47;;;4.38;;
52978;SDS011;51106;53.186;6.598;2022-07-03T01:09:09;7.13;;;4.20;;
52978;SDS011;51106;53.186;6.598;2022-07-03T01:16:10;5.07;;;3.88;;
52978;SDS011;51106;53.186;6.598;2022-07-03T01:20:20;5.40;;;3.80;;
52978;SDS011;51106;53.186;6.598;2022-07-03T01:30:04;5.80;;;3.85;;
52978;SDS011;51106;53.186;6.598;2022-07-03T01:32:11;5.20;;;3.90;;
52978;SDS011;51106;53.186;6.598;2022-07-03T01:36:20;3.40;;;2.97;;
52978;SDS011;51106;53.186;6.598;2022-07-03T01:38:26;6.50;;;4.45;;
52978;SDS011;51106;53.186;6.598;2022-07-03T01:40:34;6.53;;;4.30;;
52978;SDS011;51106;53.186;6.598;2022-07-03T01:42:37;5.82;;;3.95;;
52978;SDS011;51106;53.186;6.598;2022-07-03T01:44:43;4.28;;;3.28;;
52978;SDS011;51106;53.186;6.598;2022-07-03T01:46:48;8.45;;;4.70;;
52978;SDS011;51106;53.186;6.598;2022-07-03T01:48:53;7.07;;;4.60;;
52978;SDS011;51106;53.186;6.598;2022-07-03T01:50:57;8.63;;;4.43;;
52978;SDS011;51106;53.186;6.598;2022-07-03T01:53:01;6.25;;;4.60;;
52978;SDS011;51106;53.186;6.598;2022-07-03T01:55:04;7.13;;;3.42;;
52978;SDS011;51106;53.186;6.598;2022-07-03T01:57:06;7.72;;;4.25;;
52978;SDS011;51106;53.186;6.598;2022-07-03T01:59:08;6.97;;;4.90;;
52978;SDS011;51106;53.186;6.598;2022-07-03T02:03:35;5.30;;;4.80;;
52978;SDS011;51106;53.186;6.598;2022-07-03T02:05:50;7.95;;;5.07;;
52978;SDS011;51106;53.186;6.598;2022-07-03T02:10:39;6.78;;;5.13;;
52978;SDS011;51106;53.186;6.598;2022-07-03T02:12:49;4.82;;;4.18;;
52978;SDS011;51106;53.186;6.598;2022-07-03T02:14:58;5.00;;;3.38;;
52978;SDS011;51106;53.186;6.598;2022-07-03T02:19:22;4.47;;;3.33;;
52978;SDS011;51106;53.186;6.598;2022-07-03T02:21:36;4.82;;;4.32;;
52978;SDS011;51106;53.186;6.598;2022-07-03T02:24:04;3.88;;;3.47;;
52978;SDS011;51106;53.186;6.598;2022-07-03T02:26:13;4.80;;;4.03;;
52978;SDS011;51106;53.186;6.598;2022-07-03T02:28:22;8.35;;;5.00;;
52978;SDS011;51106;53.186;6.598;2022-07-03T02:30:34;5.93;;;4.70;;
52978;SDS011;51106;53.186;6.598;2022-07-03T02:32:44;7.63;;;4.57;;
52978;SDS011;51106;53.186;6.598;2022-07-03T02:34:52;5.72;;;5.07;;
52978;SDS011;51106;53.186;6.598;2022-07-03T02:37:10;5.25;;;4.72;;
52978;SDS011;51106;53.186;6.598;2022-07-03T02:39:22;6.30;;;5.68;;
52978;SDS011;51106;53.186;6.598;2022-07-03T02:41:39;5.97;;;5.43;;
52978;SDS011;51106;53.186;6.598;2022-07-03T02:43:49;9.13;;;5.28;;
52978;SDS011;51106;53.186;6.598;2022-07-03T02:48:29;9.45;;;5.80;;
52978;SDS011;51106;53.186;6.598;2022-07-03T02:50:35;7.18;;;5.50;;
52978;SDS011;51106;53.186;6.598;2022-07-03T02:54:45;5.80;;;4.30;;
52978;SDS011;51106;53.186;6.598;2022-07-03T02:57:05;7.72;;;5.10;;
52978;SDS011;51106;53.186;6.598;2022-07-03T02:59:13;9.07;;;5.30;;
52978;SDS011;51106;53.186;6.598;2022-07-03T03:03:37;8.35;;;5.07;;
52978;SDS011;51106;53.186;6.598;2022-07-03T03:05:40;5.43;;;4.60;;
52978;SDS011;51106;53.186;6.598;2022-07-03T03:10:14;8.15;;;5.47;;
52978;SDS011;51106;53.186;6.598;2022-07-03T03:12:24;9.40;;;5.13;;
52978;SDS011;51106;53.186;6.598;2022-07-03T03:14:40;7.57;;;4.78;;
52978;SDS011;51106;53.186;6.598;2022-07-03T03:16:50;6.68;;;4.55;;
52978;SDS011;51106;53.186;6.598;2022-07-03T03:18:54;5.43;;;4.63;;
52978;SDS011;51106;53.186;6.598;2022-07-03T03:20:58;7.07;;;5.43;;
52978;SDS011;51106;53.186;6.598;2022-07-03T03:25:26;6.78;;;5.22;;
52978;SDS011;51106;53.186;6.598;2022-07-03T03:27:28;5.45;;;4.95;;
52978;SDS011;51106;53.186;6.598;2022-07-03T03:29:30;6.90;;;4.75;;
52978;SDS011;51106;53.186;6.598;2022-07-03T03:31:33;6.10;;;4.90;;
52978;SDS011;51106;53.186;6.598;2022-07-03T03:33:36;4.35;;;3.92;;
52978;SDS011;51106;53.186;6.598;2022-07-03T03:35:41;5.95;;;4.93;;
52978;SDS011;51106;53.186;6.598;2022-07-03T03:37:44;8.18;;;4.55;;
52978;SDS011;51106;53.186;6.598;2022-07-03T03:39:46;5.25;;;4.28;;
52978;SDS011;51106;53.186;6.598;2022-07-03T03:41:49;6.53;;;4.85;;
52978;SDS011;51106;53.186;6.598;2022-07-03T03:43:51;7.70;;;4.50;;
52978;SDS011;51106;53.186;6.598;2022-07-03T03:45:53;5.90;;;4.75;;
52978;SDS011;51106;53.186;6.598;2022-07-03T03:47:55;7.13;;;5.07;;
52978;SDS011;51106;53.186;6.598;2022-07-03T03:49:58;6.25;;;4.50;;
52978;SDS011;51106;53.186;6.598;2022-07-03T03:52:01;5.22;;;4.40;;
52978;SDS011;51106;53.186;6.598;2022-07-03T03:54:04;6.88;;;5.68;;
52978;SDS011;51106;53.186;6.598;2022-07-03T03:56:07;6.60;;;5.00;;
52978;SDS011;51106;53.186;6.598;2022-07-03T03:58:14;6.30;;;4.70;;
52978;SDS011;51106;53.186;6.598;2022-07-03T04:00:16;10.57;;;4.97;;
52978;SDS011;51106;53.186;6.598;2022-07-03T04:02:19;7.22;;;4.93;;
52978;SDS011;51106;53.186;6.598;2022-07-03T04:04:24;4.57;;;4.15;;
52978;SDS011;51106;53.186;6.598;2022-07-03T04:06:26;6.65;;;4.80;;
52978;SDS011;51106;53.186;6.598;2022-07-03T04:08:28;7.60;;;4.65;;
52978;SDS011;51106;53.186;6.598;2022-07-03T04:10:31;4.75;;;4.25;;
52978;SDS011;51106;53.186;6.598;2022-07-03T04:12:33;6.80;;;5.38;;
52978;SDS011;51106;53.186;6.598;2022-07-03T04:14:35;6.68;;;5.10;;
52978;SDS011;51106;53.186;6.598;2022-07-03T04:16:37;6.32;;;4.43;;
52978;SDS011;51106;53.186;6.598;2022-07-03T04:18:39;5.75;;;4.43;;
52978;SDS011;51106;53.186;6.598;2022-07-03T04:20:41;6.30;;;5.30;;
52978;SDS011;51106;53.186;6.598;2022-07-03T04:22:44;5.57;;;4.97;;
52978;SDS011;51106;53.186;6.598;2022-07-03T04:24:46;4.97;;;4.47;;
52978;SDS011;51106;53.186;6.598;2022-07-03T04:26:48;6.07;;;5.22;;
52978;SDS011;51106;53.186;6.598;2022-07-03T04:28:50;6.05;;;4.97;;
52978;SDS011;51106;53.186;6.598;2022-07-03T04:30:52;6.28;;;4.72;;
52978;SDS011;51106;53.186;6.598;2022-07-03T04:32:54;6.40;;;4.05;;
52978;SDS011;51106;53.186;6.598;2022-07-03T04:34:58;7.63;;;5.10;;
52978;SDS011;51106;53.186;6.598;2022-07-03T04:37:00;5.75;;;4.18;;
52978;SDS011;51106;53.186;6.598;2022-07-03T04:39:02;4.25;;;3.53;;
52978;SDS011;51106;53.186;6.598;2022-07-03T04:41:04;5.35;;;4.55;;
52978;SDS011;51106;53.186;6.598;2022-07-03T04:43:06;5.78;;;4.78;;
52978;SDS011;51106;53.186;6.598;2022-07-03T04:45:08;5.10;;;4.60;;
52978;SDS011;51106;53.186;6.598;2022-07-03T04:47:11;7.88;;;5.07;;
52978;SDS011;51106;53.186;6.598;2022-07-03T04:49:14;6.18;;;5.05;;
52978;SDS011;51106;53.186;6.598;2022-07-03T04:51:16;6.63;;;4.93;;
52978;SDS011;51106;53.186;6.598;2022-07-03T04:53:18;6.47;;;5.55;;
52978;SDS011;51106;53.186;6.598;2022-07-03T04:55:21;6.28;;;5.63;;
52978;SDS011;51106;53.186;6.598;2022-07-03T04:57:23;6.55;;;5.93;;
52978;SDS011;51106;53.186;6.598;2022-07-03T04:59:25;8.57;;;5.82;;
52978;SDS011;51106;53.186;6.598;2022-07-03T05:01:27;7.53;;;6.47;;
52978;SDS011;51106;53.186;6.598;2022-07-03T05:03:29;10.02;;;5.47;;
52978;SDS011;51106;53.186;6.598;2022-07-03T05:05:32;6.65;;;5.10;;
52978;SDS011;51106;53.186;6.598;2022-07-03T05:07:34;6.82;;;5.15;;
52978;SDS011;51106;53.186;6.598;2022-07-03T05:09:37;5.60;;;4.95;;
52978;SDS011;51106;53.186;6.598;2022-07-03T05:11:39;11.27;;;5.53;;
52978;SDS011;51106;53.186;6.598;2022-07-03T05:13:42;6.60;;;5.25;;
52978;SDS011;51106;53.186;6.598;2022-07-03T05:15:44;6.68;;;5.97;;
52978;SDS011;51106;53.186;6.598;2022-07-03T05:17:46;5.80;;;4.97;;
52978;SDS011;51106;53.186;6.598;2022-07-03T05:19:49;5.53;;;5.03;;
52978;SDS011;51106;53.186;6.598;2022-07-03T05:22:11;6.65;;;5.25;;
52978;SDS011;51106;53.186;6.598;2022-07-03T05:24:13;7.15;;;4.80;;
52978;SDS011;51106;53.186;6.598;2022-07-03T05:26:15;6.57;;;5.07;;
52978;SDS011;51106;53.186;6.598;2022-07-03T05:28:17;6.10;;;5.40;;
52978;SDS011;51106;53.186;6.598;2022-07-03T05:30:19;6.18;;;5.03;;
52978;SDS011;51106;53.186;6.598;2022-07-03T05:34:25;5.90;;;4.40;;
52978;SDS011;51106;53.186;6.598;2022-07-03T05:36:27;7.85;;;4.43;;
52978;SDS011;51106;53.186;6.598;2022-07-03T05:38:29;7.20;;;4.38;;
52978;SDS011;51106;53.186;6.598;2022-07-03T05:40:50;6.55;;;4.50;;
52978;SDS011;51106;53.186;6.598;2022-07-03T05:42:52;7.63;;;3.90;;
52978;SDS011;51106;53.186;6.598;2022-07-03T05:44:55;4.90;;;3.78;;
52978;SDS011;51106;53.186;6.598;2022-07-03T05:46:57;4.45;;;3.88;;
52978;SDS011;51106;53.186;6.598;2022-07-03T05:48:59;4.85;;;3.85;;
52978;SDS011;51106;53.186;6.598;2022-07-03T05:51:01;4.90;;;3.83;;
52978;SDS011;51106;53.186;6.598;2022-07-03T05:53:03;5.28;;;3.15;;
52978;SDS011;51106;53.186;6.598;2022-07-03T05:55:05;5.18;;;3.40;;
52978;SDS011;51106;53.186;6.598;2022-07-03T05:57:07;4.25;;;3.00;;
52978;SDS011;51106;53.186;6.598;2022-07-03T05:59:10;4.90;;;3.00;;
52978;SDS011;51106;53.186;6.598;2022-07-03T06:01:12;3.42;;;2.50;;
52978;SDS011;51106;53.186;6.598;2022-07-03T06:03:14;5.03;;;2.50;;
52978;SDS011;51106;53.186;6.598;2022-07-03T06:05:16;4.65;;;2.70;;
52978;SDS011;51106;53.186;6.598;2022-07-03T06:07:19;5.10;;;2.85;;
52978;SDS011;51106;53.186;6.598;2022-07-03T06:09:24;3.58;;;2.70;;
52978;SDS011;51106;53.186;6.598;2022-07-03T06:11:26;3.40;;;2.72;;
52978;SDS011;51106;53.186;6.598;2022-07-03T06:13:28;5.30;;;2.65;;
52978;SDS011;51106;53.186;6.598;2022-07-03T06:15:30;4.80;;;3.08;;
52978;SDS011;51106;53.186;6.598;2022-07-03T06:17:36;4.60;;;2.90;;
52978;SDS011;51106;53.186;6.598;2022-07-03T06:19:38;5.70;;;3.15;;
52978;SDS011;51106;53.186;6.598;2022-07-03T06:21:40;4.90;;;3.20;;
52978;SDS011;51106;53.186;6.598;2022-07-03T06:23:43;4.28;;;2.90;;
52978;SDS011;51106;53.186;6.598;2022-07-03T06:25:47;4.40;;;2.80;;
52978;SDS011;51106;53.186;6.598;2022-07-03T06:27:49;2.92;;;2.05;;
52978;SDS011;51106;53.186;6.598;2022-07-03T06:29:51;4.22;;;2.17;;
52978;SDS011;51106;53.186;6.598;2022-07-03T06:31:53;5.50;;;1.90;;
52978;SDS011;51106;53.186;6.598;2022-07-03T06:33:55;4.28;;;2.10;;
52978;SDS011;51106;53.186;6.598;2022-07-03T06:35:57;3.30;;;2.10;;
52978;SDS011;51106;53.186;6.598;2022-07-03T06:38:03;5.88;;;2.00;;
52978;SDS011;51106;53.186;6.598;2022-07-03T06:40:05;4.82;;;1.83;;
52978;SDS011;51106;53.186;6.598;2022-07-03T06:42:08;2.70;;;1.95;;
52978;SDS011;51106;53.186;6.598;2022-07-03T06:44:10;3.92;;;2.00;;
52978;SDS011;51106;53.186;6.598;2022-07-03T06:46:14;3.17;;;2.13;;
52978;SDS011;51106;53.186;6.598;2022-07-03T06:48:17;6.32;;;2.17;;
52978;SDS011;51106;53.186;6.598;2022-07-03T06:50:19;7.05;;;2.50;;
52978;SDS011;51106;53.186;6.598;2022-07-03T06:52:21;3.38;;;1.90;;
52978;SDS011;51106;53.186;6.598;2022-07-03T06:54:23;4.15;;;1.88;;
52978;SDS011;51106;53.186;6.598;2022-07-03T06:56:25;4.38;;;2.00;;
52978;SDS011;51106;53.186;6.598;2022-07-03T06:58:31;4.00;;;2.17;;
52978;SDS011;51106;53.186;6.598;2022-07-03T07:00:33;3.80;;;2.00;;
52978;SDS011;51106;53.186;6.598;2022-07-03T07:02:35;4.70;;;2.17;;
52978;SDS011;51106;53.186;6.598;2022-07-03T07:04:37;3.63;;;1.95;;
52978;SDS011;51106;53.186;6.598;2022-07-03T07:06:39;3.40;;;2.00;;
52978;SDS011;51106;53.186;6.598;2022-07-03T07:08:42;5.57;;;2.55;;
52978;SDS011;51106;53.186;6.598;2022-07-03T07:10:44;3.92;;;2.13;;
52978;SDS011;51106;53.186;6.598;2022-07-03T07:12:46;4.20;;;2.15;;
52978;SDS011;51106;53.186;6.598;2022-07-03T07:14:48;4.53;;;2.10;;
52978;SDS011;51106;53.186;6.598;2022-07-03T07:16:51;6.57;;;2.20;;
52978;SDS011;51106;53.186;6.598;2022-07-03T07:18:53;2.85;;;1.77;;
52978;SDS011;51106;53.186;6.598;2022-07-03T07:20:55;4.53;;;2.00;;
52978;SDS011;51106;53.186;6.598;2022-07-03T07:22:57;2.65;;;1.92;;
52978;SDS011;51106;53.186;6.598;2022-07-03T07:24:59;4.65;;;2.15;;
52978;SDS011;51106;53.186;6.598;2022-07-03T07:27:04;4.13;;;1.80;;
52978;SDS011;51106;53.186;6.598;2022-07-03T07:29:06;4.05;;;2.15;;
52978;SDS011;51106;53.186;6.598;2022-07-03T07:31:08;4.45;;;2.08;;
52978;SDS011;51106;53.186;6.598;2022-07-03T07:33:10;3.47;;;1.85;;
52978;SDS011;51106;53.186;6.598;2022-07-03T07:35:12;3.33;;;1.90;;
52978;SDS011;51106;53.186;6.598;2022-07-03T07:37:14;3.85;;;2.10;;
52978;SDS011;51106;53.186;6.598;2022-07-03T07:39:17;3.80;;;2.10;;
52978;SDS011;51106;53.186;6.598;2022-07-03T07:41:19;3.70;;;1.90;;
52978;SDS011;51106;53.186;6.598;2022-07-03T07:43:23;3.50;;;1.90;;
52978;SDS011;51106;53.186;6.598;2022-07-03T07:45:25;4.03;;;2.13;;
52978;SDS011;51106;53.186;6.598;2022-07-03T07:47:28;4.07;;;2.30;;
52978;SDS011;51106;53.186;6.598;2022-07-03T07:49:30;5.03;;;2.30;;
52978;SDS011;51106;53.186;6.598;2022-07-03T07:51:32;4.85;;;2.25;;
52978;SDS011;51106;53.186;6.598;2022-07-03T07:53:34;3.67;;;1.92;;
52978;SDS011;51106;53.186;6.598;2022-07-03T07:55:36;3.72;;;2.20;;
52978;SDS011;51106;53.186;6.598;2022-07-03T07:57:39;3.75;;;1.90;;
52978;SDS011;51106;53.186;6.598;2022-07-03T07:59:41;4.68;;;1.85;;
52978;SDS011;51106;53.186;6.598;2022-07-03T08:01:49;2.25;;;1.70;;
52978;SDS011;51106;53.186;6.598;2022-07-03T08:04:10;5.40;;;2.40;;
52978;SDS011;51106;53.186;6.598;2022-07-03T08:06:30;2.88;;;2.03;;
52978;SDS011;51106;53.186;6.598;2022-07-03T08:08:33;4.15;;;1.80;;
52978;SDS011;51106;53.186;6.598;2022-07-03T08:10:44;3.47;;;2.10;;
52978;SDS011;51106;53.186;6.598;2022-07-03T08:12:46;4.45;;;2.00;;
52978;SDS011;51106;53.186;6.598;2022-07-03T08:14:48;3.08;;;1.90;;
52978;SDS011;51106;53.186;6.598;2022-07-03T08:16:50;3.38;;;2.10;;
52978;SDS011;51106;53.186;6.598;2022-07-03T08:18:52;6.03;;;2.10;;
52978;SDS011;51106;53.186;6.598;2022-07-03T08:20:55;4.25;;;2.30;;
52978;SDS011;51106;53.186;6.598;2022-07-03T08:22:57;3.65;;;1.90;;
52978;SDS011;51106;53.186;6.598;2022-07-03T08:24:59;3.50;;;1.92;;
52978;SDS011;51106;53.186;6.598;2022-07-03T08:27:01;4.53;;;2.10;;
52978;SDS011;51106;53.186;6.598;2022-07-03T08:29:04;3.95;;;2.00;;
52978;SDS011;51106;53.186;6.598;2022-07-03T08:31:06;4.43;;;2.40;;
52978;SDS011;51106;53.186;6.598;2022-07-03T08:33:08;4.22;;;2.10;;
52978;SDS011;51106;53.186;6.598;2022-07-03T08:35:10;4.70;;;2.67;;
52978;SDS011;51106;53.186;6.598;2022-07-03T08:37:13;2.97;;;1.90;;
52978;SDS011;51106;53.186;6.598;2022-07-03T08:39:15;2.95;;;2.00;;
52978;SDS011;51106;53.186;6.598;2022-07-03T08:41:17;4.43;;;2.08;;
52978;SDS011;51106;53.186;6.598;2022-07-03T08:43:21;4.60;;;2.00;;
52978;SDS011;51106;53.186;6.598;2022-07-03T08:45:29;4.38;;;2.03;;
52978;SDS011;51106;53.186;6.598;2022-07-03T08:47:34;3.60;;;1.83;;
52978;SDS011;51106;53.186;6.598;2022-07-03T08:49:39;3.53;;;1.73;;
52978;SDS011;51106;53.186;6.598;2022-07-03T08:51:42;2.42;;;1.70;;
52978;SDS011;51106;53.186;6.598;2022-07-03T08:53:49;1.95;;;1.40;;
52978;SDS011;51106;53.186;6.598;2022-07-03T08:55:54;4.63;;;1.60;;
52978;SDS011;51106;53.186;6.598;2022-07-03T08:57:56;2.40;;;1.55;;
52978;SDS011;51106;53.186;6.598;2022-07-03T09:00:03;2.10;;;1.50;;
52978;SDS011;51106;53.186;6.598;2022-07-03T09:02:10;4.30;;;1.58;;
52978;SDS011;51106;53.186;6.598;2022-07-03T09:04:13;4.47;;;1.58;;
52978;SDS011;51106;53.186;6.598;2022-07-03T09:06:15;3.25;;;1.40;;
52978;SDS011;51106;53.186;6.598;2022-07-03T09:08:18;2.83;;;1.50;;
52978;SDS011;51106;53.186;6.598;2022-07-03T09:10:22;2.42;;;1.60;;
52978;SDS011;51106;53.186;6.598;2022-07-03T09:12:25;1.88;;;1.30;;
52978;SDS011;51106;53.186;6.598;2022-07-03T09:14:27;2.58;;;1.60;;
52978;SDS011;51106;53.186;6.598;2022-07-03T09:16:29;2.25;;;1.50;;
52978;SDS011;51106;53.186;6.598;2022-07-03T09:18:38;2.00;;;1.27;;
52978;SDS011;51106;53.186;6.598;2022-07-03T09:20:41;2.65;;;1.52;;
52978;SDS011;51106;53.186;6.598;2022-07-03T09:22:45;2.50;;;1.70;;
52978;SDS011;51106;53.186;6.598;2022-07-03T09:24:51;2.85;;;1.50;;
52978;SDS011;51106;53.186;6.598;2022-07-03T09:27:05;1.92;;;1.48;;
52978;SDS011;51106;53.186;6.598;2022-07-03T09:29:17;2.30;;;1.73;;
52978;SDS011;51106;53.186;6.598;2022-07-03T09:31:19;2.15;;;1.35;;
52978;SDS011;51106;53.186;6.598;2022-07-03T09:33:26;2.00;;;1.40;;
52978;SDS011;51106;53.186;6.598;2022-07-03T09:35:28;2.75;;;1.55;;
52978;SDS011;51106;53.186;6.598;2022-07-03T09:37:30;2.83;;;1.50;;
52978;SDS011;51106;53.186;6.598;2022-07-03T09:39:34;2.03;;;1.50;;
52978;SDS011;51106;53.186;6.598;2022-07-03T09:42:11;3.30;;;1.45;;
52978;SDS011;51106;53.186;6.598;2022-07-03T09:44:08;1.55;;;1.33;;
52978;SDS011;51106;53.186;6.598;2022-07-03T09:46:29;3.25;;;1.50;;
52978;SDS011;51106;53.186;6.598;2022-07-03T09:48:34;2.97;;;1.40;;
52978;SDS011;51106;53.186;6.598;2022-07-03T09:50:38;3.17;;;1.60;;
52978;SDS011;51106;53.186;6.598;2022-07-03T09:52:43;2.25;;;1.50;;
52978;SDS011;51106;53.186;6.598;2022-07-03T09:54:47;1.30;;;1.20;;
52978;SDS011;51106;53.186;6.598;2022-07-03T09:56:49;1.77;;;1.52;;
52978;SDS011;51106;53.186;6.598;2022-07-03T10:01:17;1.90;;;1.27;;
52978;SDS011;51106;53.186;6.598;2022-07-03T10:03:20;2.13;;;1.40;;
52978;SDS011;51106;53.186;6.598;2022-07-03T10:05:43;3.25;;;1.38;;
52978;SDS011;51106;53.186;6.598;2022-07-03T10:07:52;3.47;;;1.60;;
52978;SDS011;51106;53.186;6.598;2022-07-03T10:10:03;1.55;;;1.40;;
52978;SDS011;51106;53.186;6.598;2022-07-03T10:12:05;2.38;;;1.60;;
52978;SDS011;51106;53.186;6.598;2022-07-03T10:14:10;1.77;;;1.50;;
52978;SDS011;51106;53.186;6.598;2022-07-03T10:16:19;2.10;;;1.40;;
52978;SDS011;51106;53.186;6.598;2022-07-03T10:18:22;2.08;;;1.38;;
52978;SDS011;51106;53.186;6.598;2022-07-03T10:20:36;3.05;;;1.60;;
52978;SDS011;51106;53.186;6.598;2022-07-03T10:22:49;1.90;;;1.38;;
52978;SDS011;51106;53.186;6.598;2022-07-03T10:24:51;2.78;;;1.40;;
52978;SDS011;51106;53.186;6.598;2022-07-03T10:26:56;5.85;;;1.60;;
52978;SDS011;51106;53.186;6.598;2022-07-03T10:29:00;2.50;;;1.63;;
52978;SDS011;51106;53.186;6.598;2022-07-03T10:31:02;2.80;;;1.67;;
52978;SDS011;51106;53.186;6.598;2022-07-03T10:33:05;2.45;;;1.65;;
52978;SDS011;51106;53.186;6.598;2022-07-03T10:35:07;5.25;;;1.77;;
52978;SDS011;51106;53.186;6.598;2022-07-03T10:37:10;2.85;;;1.67;;
52978;SDS011;51106;53.186;6.598;2022-07-03T10:39:20;2.92;;;1.70;;
52978;SDS011;51106;53.186;6.598;2022-07-03T10:41:33;3.67;;;1.83;;
52978;SDS011;51106;53.186;6.598;2022-07-03T10:43:56;2.53;;;1.65;;
52978;SDS011;51106;53.186;6.598;2022-07-03T10:46:18;2.17;;;1.50;;
52978;SDS011;51106;53.186;6.598;2022-07-03T10:48:30;2.50;;;1.60;;
52978;SDS011;51106;53.186;6.598;2022-07-03T10:51:13;1.67;;;1.40;;
52978;SDS011;51106;53.186;6.598;2022-07-03T10:53:22;1.98;;;1.40;;
52978;SDS011;51106;53.186;6.598;2022-07-03T10:55:24;1.75;;;1.40;;
52978;SDS011;51106;53.186;6.598;2022-07-03T10:57:26;2.03;;;1.40;;
52978;SDS011;51106;53.186;6.598;2022-07-03T11:01:36;1.90;;;1.48;;
52978;SDS011;51106;53.186;6.598;2022-07-03T11:06:02;2.90;;;1.58;;
52978;SDS011;51106;53.186;6.598;2022-07-03T11:08:05;2.15;;;1.40;;
52978;SDS011;51106;53.186;6.598;2022-07-03T11:12:13;6.10;;;1.60;;
52978;SDS011;51106;53.186;6.598;2022-07-03T11:14:20;1.67;;;1.50;;
52978;SDS011;51106;53.186;6.598;2022-07-03T11:16:23;3.03;;;1.65;;
52978;SDS011;51106;53.186;6.598;2022-07-03T11:18:33;3.50;;;1.70;;
52978;SDS011;51106;53.186;6.598;2022-07-03T11:22:49;3.20;;;1.83;;
52978;SDS011;51106;53.186;6.598;2022-07-03T11:25:01;6.47;;;1.80;;
52978;SDS011;51106;53.186;6.598;2022-07-03T11:27:13;3.25;;;1.70;;
52978;SDS011;51106;53.186;6.598;2022-07-03T11:29:25;4.13;;;1.73;;
52978;SDS011;51106;53.186;6.598;2022-07-03T11:31:29;1.95;;;1.42;;
52978;SDS011;51106;53.186;6.598;2022-07-03T11:33:44;3.63;;;1.83;;
52978;SDS011;51106;53.186;6.598;2022-07-03T11:35:55;2.93;;;1.57;;
52978;SDS011;51106;53.186;6.598;2022-07-03T11:37:57;3.47;;;1.77;;
52978;SDS011;51106;53.186;6.598;2022-07-03T11:40:01;3.95;;;1.80;;
52978;SDS011;51106;53.186;6.598;2022-07-03T11:42:05;3.88;;;1.65;;
52978;SDS011;51106;53.186;6.598;2022-07-03T11:44:08;10.70;;;2.00;;
52978;SDS011;51106;53.186;6.598;2022-07-03T11:46:15;2.05;;;1.63;;
52978;SDS011;51106;53.186;6.598;2022-07-03T11:48:22;8.82;;;2.30;;
52978;SDS011;51106;53.186;6.598;2022-07-03T11:50:39;3.35;;;1.65;;
52978;SDS011;51106;53.186;6.598;2022-07-03T11:52:42;5.80;;;1.80;;
52978;SDS011;51106;53.186;6.598;2022-07-03T11:54:51;3.83;;;1.80;;
52978;SDS011;51106;53.186;6.598;2022-07-03T11:56:54;3.67;;;1.95;;
52978;SDS011;51106;53.186;6.598;2022-07-03T11:58:57;5.25;;;1.70;;
52978;SDS011;51106;53.186;6.598;2022-07-03T12:01:01;3.67;;;1.80;;
52978;SDS011;51106;53.186;6.598;2022-07-03T12:03:03;3.22;;;1.83;;
52978;SDS011;51106;53.186;6.598;2022-07-03T12:05:13;6.57;;;1.95;;
52978;SDS011;51106;53.186;6.598;2022-07-03T12:07:18;5.13;;;1.87;;
52978;SDS011;51106;53.186;6.598;2022-07-03T12:09:22;5.10;;;2.10;;
52978;SDS011;51106;53.186;6.598;2022-07-03T12:11:36;3.88;;;1.65;;
52978;SDS011;51106;53.186;6.598;2022-07-03T12:13:39;3.65;;;2.00;;
52978;SDS011;51106;53.186;6.598;2022-07-03T12:15:42;4.60;;;1.85;;
52978;SDS011;51106;53.186;6.598;2022-07-03T12:17:45;3.60;;;1.90;;
52978;SDS011;51106;53.186;6.598;2022-07-03T12:21:50;8.18;;;2.28;;
52978;SDS011;51106;53.186;6.598;2022-07-03T12:23:54;5.05;;;2.20;;
52978;SDS011;51106;53.186;6.598;2022-07-03T12:27:58;2.97;;;1.70;;
52978;SDS011;51106;53.186;6.598;2022-07-03T12:30:10;5.35;;;1.98;;
52978;SDS011;51106;53.186;6.598;2022-07-03T12:32:14;3.78;;;1.90;;
52978;SDS011;51106;53.186;6.598;2022-07-03T12:34:16;5.07;;;2.00;;
52978;SDS011;51106;53.186;6.598;2022-07-03T12:36:19;4.40;;;1.58;;
52978;SDS011;51106;53.186;6.598;2022-07-03T12:38:30;8.90;;;2.25;;
52978;SDS011;51106;53.186;6.598;2022-07-03T12:40:33;4.00;;;2.00;;
52978;SDS011;51106;53.186;6.598;2022-07-03T12:42:44;5.90;;;2.15;;
52978;SDS011;51106;53.186;6.598;2022-07-03T12:47:02;5.82;;;2.25;;
52978;SDS011;51106;53.186;6.598;2022-07-03T12:49:08;4.35;;;2.22;;
52978;SDS011;51106;53.186;6.598;2022-07-03T12:51:11;3.83;;;2.08;;
52978;SDS011;51106;53.186;6.598;2022-07-03T12:53:25;4.85;;;1.90;;
52978;SDS011;51106;53.186;6.598;2022-07-03T12:55:34;3.28;;;1.77;;
52978;SDS011;51106;53.186;6.598;2022-07-03T12:57:36;3.13;;;2.05;;
52978;SDS011;51106;53.186;6.598;2022-07-03T13:00:07;3.75;;;2.30;;
52978;SDS011;51106;53.186;6.598;2022-07-03T13:02:25;4.20;;;2.20;;
52978;SDS011;51106;53.186;6.598;2022-07-03T13:04:29;3.53;;;1.90;;
52978;SDS011;51106;53.186;6.598;2022-07-03T13:06:36;5.05;;;1.80;;
52978;SDS011;51106;53.186;6.598;2022-07-03T13:08:38;6.80;;;2.05;;
52978;SDS011;51106;53.186;6.598;2022-07-03T13:10:55;5.82;;;2.05;;
52978;SDS011;51106;53.186;6.598;2022-07-03T13:13:01;6.60;;;2.05;;
52978;SDS011;51106;53.186;6.598;2022-07-03T13:15:07;3.67;;;1.70;;
52978;SDS011;51106;53.186;6.598;2022-07-03T13:17:10;5.35;;;2.28;;
52978;SDS011;51106;53.186;6.598;2022-07-03T13:19:26;5.53;;;1.92;;
52978;SDS011;51106;53.186;6.598;2022-07-03T13:21:29;4.47;;;1.80;;
52978;SDS011;51106;53.186;6.598;2022-07-03T13:23:36;6.28;;;1.90;;
52978;SDS011;51106;53.186;6.598;2022-07-03T13:25:38;5.90;;;1.90;;
52978;SDS011;51106;53.186;6.598;2022-07-03T13:27:41;5.85;;;2.10;;
52978;SDS011;51106;53.186;6.598;2022-07-03T13:29:44;4.25;;;2.10;;
52978;SDS011;51106;53.186;6.598;2022-07-03T13:31:48;4.97;;;1.80;;